createdAt,value
2023-08-18T00:00:49.613Z,33.30
2023-08-18T00:01:49.493Z,31.40
2023-08-18T00:02:49.528Z,31.10
2023-08-18T00:03:49.562Z,33.00
2023-08-18T00:04:49.422Z,38.70
2023-08-18T00:05:49.433Z,32.60
2023-08-18T00:06:49.393Z,32.60
2023-08-18T00:07:49.394Z,32.00
2023-08-18T00:08:49.602Z,31.90
2023-08-18T00:09:49.389Z,30.60
2023-08-18T00:10:49.343Z,41.20
2023-08-18T00:11:49.333Z,35.70
2023-08-18T00:12:49.354Z,36.50
2023-08-18T00:13:49.340Z,30.90
2023-08-18T00:14:49.313Z,32.30
2023-08-18T00:15:49.372Z,30.70
2023-08-18T00:16:49.280Z,38.10
2023-08-18T00:17:49.300Z,35.40
2023-08-18T00:18:49.632Z,33.20
2023-08-18T00:19:49.250Z,27.80
2023-08-18T00:20:49.211Z,32.10
2023-08-18T00:21:49.201Z,30.50
2023-08-18T00:22:49.186Z,30.20
2023-08-18T00:23:49.204Z,30.50
2023-08-18T00:24:49.167Z,33.30
2023-08-18T00:25:49.168Z,29.60
2023-08-18T00:26:49.285Z,29.30
2023-08-18T00:27:49.118Z,35.70
2023-08-18T00:28:49.132Z,36.90
2023-08-18T00:29:49.120Z,33.90
2023-08-18T00:30:49.113Z,33.80
2023-08-18T00:31:49.073Z,34.60
2023-08-18T00:32:49.140Z,33.30
2023-08-18T00:33:49.067Z,29.00
2023-08-18T00:34:49.042Z,31.20
2023-08-18T00:35:49.012Z,31.00
2023-08-18T00:36:49.023Z,37.30
2023-08-18T00:37:49.015Z,37.30
2023-08-18T00:38:49.040Z,34.20
2023-08-18T00:39:48.998Z,31.30
2023-08-18T00:40:48.992Z,33.10
2023-08-18T00:41:48.972Z,33.40
2023-08-18T00:42:48.919Z,31.70
2023-08-18T00:43:48.981Z,31.80
2023-08-18T00:44:48.922Z,34.20
2023-08-18T00:45:48.953Z,31.90
2023-08-18T00:46:48.881Z,31.20
2023-08-18T00:47:48.898Z,37.90
2023-08-18T00:48:48.852Z,36.20
2023-08-18T00:49:48.899Z,36.20
2023-08-18T00:50:48.819Z,36.60
2023-08-18T00:51:48.841Z,32.40
2023-08-18T00:52:48.788Z,38.80
2023-08-18T00:53:48.779Z,35.60
2023-08-18T00:54:48.771Z,35.80
2023-08-18T00:55:48.809Z,40.10
2023-08-18T00:56:48.772Z,42.20
2023-08-18T00:57:48.804Z,46.70
2023-08-18T00:58:48.729Z,40.40
2023-08-18T00:59:48.711Z,36.10
2023-08-18T01:00:48.830Z,39.00
2023-08-18T01:01:48.705Z,38.20
2023-08-18T01:02:48.724Z,31.60
2023-08-18T01:03:48.720Z,31.20
2023-08-18T01:04:48.638Z,32.80
2023-08-18T01:05:48.643Z,39.80
2023-08-18T01:06:48.637Z,32.10
2023-08-18T01:07:48.621Z,36.10
2023-08-18T01:08:48.610Z,34.20
2023-08-18T01:09:48.604Z,31.40
2023-08-18T01:10:48.577Z,31.70
2023-08-18T01:11:48.576Z,33.50
2023-08-18T01:12:48.527Z,39.00
2023-08-18T01:13:48.562Z,32.30
2023-08-18T01:14:48.517Z,38.90
2023-08-18T01:15:48.490Z,35.50
2023-08-18T01:16:48.557Z,34.90
2023-08-18T01:17:48.529Z,32.40
2023-08-18T01:18:48.485Z,34.80
2023-08-18T01:19:48.444Z,35.10
2023-08-18T01:20:48.466Z,34.20
2023-08-18T01:21:48.411Z,30.40
2023-08-18T01:22:48.403Z,32.70
2023-08-18T01:23:48.387Z,37.00
2023-08-18T01:24:48.400Z,35.00
2023-08-18T01:25:48.386Z,39.50
2023-08-18T01:26:48.534Z,35.80
2023-08-18T01:27:48.360Z,37.10
2023-08-18T01:28:48.347Z,39.20
2023-08-18T01:29:48.346Z,39.90
2023-08-18T01:30:48.410Z,34.90
2023-08-18T01:31:48.368Z,34.40
2023-08-18T01:32:48.353Z,35.10
2023-08-18T01:33:48.284Z,40.40
2023-08-18T01:34:48.242Z,44.00
2023-08-18T01:35:48.265Z,41.50
2023-08-18T01:36:48.230Z,41.40
2023-08-18T01:37:48.208Z,41.10
2023-08-18T01:38:48.339Z,47.00
2023-08-18T01:39:48.198Z,38.70
2023-08-18T01:40:48.174Z,45.30
2023-08-18T01:41:48.168Z,47.30
2023-08-18T01:42:48.150Z,52.70
2023-08-18T01:43:48.123Z,52.00
2023-08-18T01:44:48.133Z,50.00
2023-08-18T01:45:48.100Z,48.60
2023-08-18T01:46:48.237Z,48.70
2023-08-18T01:47:48.108Z,49.30
2023-08-18T01:48:48.090Z,50.60
2023-08-18T01:49:48.055Z,50.50
2023-08-18T01:50:48.166Z,49.50
2023-08-18T01:51:48.044Z,48.00
2023-08-18T01:52:48.022Z,49.70
2023-08-18T01:53:48.020Z,54.80
2023-08-18T01:54:48.013Z,51.00
2023-08-18T01:55:47.970Z,58.70
2023-08-18T01:56:48.016Z,54.20
2023-08-18T01:57:47.966Z,49.90
2023-08-18T01:58:47.941Z,50.10
2023-08-18T01:59:47.948Z,47.70
2023-08-18T02:00:47.903Z,45.40
2023-08-18T02:01:47.938Z,54.00
2023-08-18T02:02:47.951Z,48.80
2023-08-18T02:03:47.968Z,51.20
2023-08-18T02:04:47.855Z,49.00
2023-08-18T02:05:47.832Z,53.70
2023-08-18T02:06:47.870Z,57.10
2023-08-18T02:07:47.840Z,47.10
2023-08-18T02:08:47.843Z,57.20
2023-08-18T02:09:47.786Z,58.30
2023-08-18T02:10:47.795Z,55.00
2023-08-18T02:11:47.787Z,52.30
2023-08-18T02:12:47.806Z,50.90
2023-08-18T02:13:47.758Z,54.90
2023-08-18T02:14:47.729Z,53.30
2023-08-18T02:15:47.762Z,58.50
2023-08-18T02:16:47.689Z,50.80
2023-08-18T02:17:47.690Z,57.60
2023-08-18T02:18:47.722Z,59.70
2023-08-18T02:19:47.676Z,53.80
2023-08-18T02:20:47.678Z,58.90
2023-08-18T02:21:47.628Z,62.60
2023-08-18T02:22:47.623Z,56.30
2023-08-18T02:23:47.595Z,57.80
2023-08-18T02:24:47.749Z,58.50
2023-08-18T02:25:47.585Z,51.10
2023-08-18T02:26:47.605Z,60.20
2023-08-18T02:27:47.555Z,53.30
2023-08-18T02:28:47.558Z,52.70
2023-08-18T02:29:47.572Z,58.20
2023-08-18T02:30:47.536Z,52.00
2023-08-18T02:31:47.597Z,51.40
2023-08-18T02:32:47.515Z,54.60
2023-08-18T02:33:47.495Z,54.40
2023-08-18T02:34:47.485Z,54.60
2023-08-18T02:35:47.487Z,51.80
2023-08-18T02:36:47.465Z,54.50
2023-08-18T02:37:47.416Z,52.90
2023-08-18T02:38:47.419Z,61.60
2023-08-18T02:39:47.388Z,54.90
2023-08-18T02:40:47.409Z,49.40
2023-08-18T02:41:47.392Z,61.40
2023-08-18T02:42:47.394Z,59.70
2023-08-18T02:43:47.367Z,54.30
2023-08-18T02:44:47.369Z,64.00
2023-08-18T02:45:47.322Z,61.90
2023-08-18T02:46:47.303Z,62.60
2023-08-18T02:47:47.326Z,52.90
2023-08-18T02:48:47.319Z,71.10
2023-08-18T02:49:47.262Z,66.50
2023-08-18T02:50:47.269Z,72.20
2023-08-18T02:51:47.263Z,62.90
2023-08-18T02:52:47.244Z,72.00
2023-08-18T02:53:47.291Z,53.90
2023-08-18T02:54:47.193Z,54.40
2023-08-18T02:55:47.213Z,65.00
2023-08-18T02:56:47.217Z,59.50
2023-08-18T02:57:47.175Z,64.50
2023-08-18T02:58:47.142Z,52.70
2023-08-18T02:59:47.180Z,58.50
2023-08-18T03:00:47.122Z,67.60
2023-08-18T03:01:47.310Z,65.00
2023-08-18T03:02:47.124Z,61.80
2023-08-18T03:03:47.155Z,67.20
2023-08-18T03:04:47.057Z,57.10
2023-08-18T03:05:47.084Z,55.90
2023-08-18T03:06:47.071Z,53.80
2023-08-18T03:07:47.029Z,54.50
2023-08-18T03:08:47.045Z,50.80
2023-08-18T03:09:47.022Z,48.50
2023-08-18T03:10:47.009Z,55.00
2023-08-18T03:11:46.974Z,51.40
2023-08-18T03:12:46.979Z,51.20
2023-08-18T03:13:46.997Z,54.50
2023-08-18T03:14:46.939Z,47.00
2023-08-18T03:15:47.067Z,50.90
2023-08-18T03:16:46.913Z,54.30
2023-08-18T03:17:47.019Z,53.60
2023-08-18T03:18:47.102Z,49.60
2023-08-18T03:19:46.975Z,48.20
2023-08-18T03:20:46.882Z,49.90
2023-08-18T03:21:46.888Z,52.60
2023-08-18T03:22:46.905Z,48.00
2023-08-18T03:23:46.854Z,46.00
2023-08-18T03:24:46.847Z,56.00
2023-08-18T03:25:46.822Z,50.50
2023-08-18T03:26:46.790Z,50.00
2023-08-18T03:27:46.786Z,49.50
2023-08-18T03:28:46.758Z,45.50
2023-08-18T03:29:46.739Z,50.80
2023-08-18T03:32:06.857Z,53.10
2023-08-18T03:33:05.712Z,59.10
2023-08-18T03:34:05.648Z,56.60
2023-08-18T03:35:05.632Z,56.10
2023-08-18T03:36:05.625Z,54.40
2023-08-18T03:37:05.635Z,61.00
2023-08-18T03:38:05.677Z,55.00
2023-08-18T03:39:05.600Z,64.50
2023-08-18T03:40:05.579Z,63.20
2023-08-18T03:41:05.911Z,55.90
2023-08-18T03:42:05.541Z,60.10
2023-08-18T03:43:05.551Z,62.00
2023-08-18T03:44:05.521Z,64.60
2023-08-18T03:45:05.522Z,52.50
2023-08-18T03:46:05.552Z,54.70
2023-08-18T03:47:05.474Z,52.40
2023-08-18T03:48:05.527Z,59.50
2023-08-18T03:49:05.515Z,55.40
2023-08-18T03:50:05.464Z,51.40
2023-08-18T03:51:05.426Z,57.70
2023-08-18T03:52:05.452Z,60.40
2023-08-18T03:53:05.430Z,60.40
2023-08-18T03:54:05.427Z,57.30
2023-08-18T03:55:05.414Z,43.10
2023-08-18T03:56:05.427Z,48.50
2023-08-18T03:57:05.379Z,50.80
2023-08-18T03:58:05.346Z,50.20
2023-08-18T03:59:05.338Z,47.00
2023-08-18T04:00:05.305Z,49.30
2023-08-18T04:01:05.336Z,45.70
2023-08-18T04:02:05.309Z,44.00
2023-08-18T04:03:05.340Z,49.20
2023-08-18T04:04:05.284Z,50.80
2023-08-18T04:05:05.285Z,47.50
2023-08-18T04:06:05.270Z,39.40
2023-08-18T04:07:05.252Z,41.80
2023-08-18T04:08:05.233Z,43.10
2023-08-18T04:09:05.202Z,50.40
2023-08-18T04:10:05.216Z,42.90
2023-08-18T04:11:05.174Z,46.90
2023-08-18T04:12:05.188Z,45.90
2023-08-18T04:13:05.183Z,51.30
2023-08-18T04:14:05.138Z,47.90
2023-08-18T04:15:05.148Z,44.80
2023-08-18T04:16:05.159Z,47.80
2023-08-18T04:17:05.139Z,45.40
2023-08-18T04:18:05.102Z,54.80
2023-08-18T04:19:05.075Z,49.70
2023-08-18T04:20:05.066Z,47.70
2023-08-18T04:21:05.087Z,39.10
2023-08-18T04:22:05.060Z,41.40
2023-08-18T04:23:05.047Z,47.00
2023-08-18T04:24:05.030Z,44.10
2023-08-18T04:25:04.983Z,48.40
2023-08-18T04:26:04.967Z,47.80
2023-08-18T04:27:04.997Z,42.10
2023-08-18T04:28:04.973Z,45.50
2023-08-18T04:29:04.955Z,43.70
2023-08-18T04:30:04.955Z,41.10
2023-08-18T04:31:04.959Z,49.40
2023-08-18T04:32:04.893Z,43.40
2023-08-18T04:33:04.943Z,43.90
2023-08-18T04:34:04.892Z,47.20
2023-08-18T04:35:04.929Z,45.90
2023-08-18T04:36:05.130Z,44.20
2023-08-18T04:37:04.850Z,48.50
2023-08-18T04:38:04.844Z,44.90
2023-08-18T04:39:04.817Z,43.70
2023-08-18T04:40:04.801Z,47.40
2023-08-18T04:41:04.790Z,42.70
2023-08-18T04:42:04.806Z,42.80
2023-08-18T04:43:04.751Z,48.70
2023-08-18T04:44:04.728Z,46.80
2023-08-18T04:45:04.740Z,38.30
2023-08-18T04:46:04.719Z,42.60
2023-08-18T04:47:04.773Z,43.40
2023-08-18T04:48:04.715Z,35.90
2023-08-18T04:49:04.853Z,40.70
2023-08-18T04:50:04.677Z,39.60
2023-08-18T04:51:04.663Z,45.70
2023-08-18T04:52:04.677Z,46.10
2023-08-18T04:53:04.759Z,46.90
2023-08-18T04:54:04.628Z,45.70
2023-08-18T04:55:04.642Z,45.40
2023-08-18T04:56:04.723Z,49.00
2023-08-18T04:57:04.591Z,45.30
2023-08-18T04:58:04.561Z,49.20
2023-08-18T04:59:04.562Z,54.90
2023-08-18T05:00:04.546Z,58.50
2023-08-18T05:01:04.592Z,54.60
2023-08-18T05:02:04.510Z,50.20
2023-08-18T05:03:04.594Z,53.90
2023-08-18T05:04:04.496Z,60.90
2023-08-18T05:05:04.452Z,54.90
2023-08-18T05:06:04.460Z,58.20
2023-08-18T05:07:05.431Z,52.70
2023-08-18T05:08:04.437Z,59.20
2023-08-18T05:09:04.428Z,56.30
2023-08-18T05:10:04.399Z,52.80
2023-08-18T05:11:04.380Z,60.00
2023-08-18T05:12:04.404Z,62.70
2023-08-18T05:13:04.415Z,55.80
2023-08-18T05:14:04.340Z,51.10
2023-08-18T05:15:04.322Z,55.70
2023-08-18T05:16:04.462Z,62.20
2023-08-18T05:17:04.322Z,59.80
2023-08-18T05:18:04.325Z,55.80
2023-08-18T05:19:04.297Z,58.10
2023-08-18T05:20:04.257Z,54.70
2023-08-18T05:21:04.247Z,55.70
2023-08-18T05:22:04.250Z,58.80
2023-08-18T05:23:04.246Z,57.40
2023-08-18T05:24:04.218Z,50.10
2023-08-18T05:25:04.218Z,52.60
2023-08-18T05:26:04.185Z,58.00
2023-08-18T05:27:04.198Z,54.80
2023-08-18T05:28:04.182Z,71.60
2023-08-18T05:29:04.163Z,59.70
2023-08-18T05:30:04.182Z,62.90
2023-08-18T05:31:04.201Z,65.40
2023-08-18T05:32:04.163Z,59.40
2023-08-18T05:33:04.169Z,53.00
2023-08-18T05:34:04.080Z,65.00
2023-08-18T05:35:04.063Z,60.40
2023-08-18T05:36:04.078Z,58.70
2023-08-18T05:37:04.056Z,69.60
2023-08-18T05:38:04.070Z,62.10
2023-08-18T05:39:04.012Z,66.50
2023-08-18T05:40:04.026Z,56.70
2023-08-18T05:41:04.071Z,71.60
2023-08-18T05:42:03.989Z,60.00
2023-08-18T05:43:03.947Z,78.20
2023-08-18T05:44:04.055Z,63.90
2023-08-18T05:45:03.930Z,59.00
2023-08-18T05:46:03.934Z,64.30
2023-08-18T05:47:03.923Z,60.80
2023-08-18T05:48:03.893Z,54.00
2023-08-18T05:49:03.878Z,59.60
2023-08-18T05:50:03.908Z,61.20
2023-08-18T05:51:03.854Z,62.20
2023-08-18T05:52:03.858Z,62.50
2023-08-18T05:53:03.829Z,69.90
2023-08-18T05:54:03.814Z,63.80
2023-08-18T05:55:03.788Z,50.10
2023-08-18T05:56:03.837Z,56.50
2023-08-18T05:57:03.768Z,49.10
2023-08-18T05:58:03.850Z,53.00
2023-08-18T05:59:03.740Z,53.20
2023-08-18T06:00:03.751Z,49.40
2023-08-18T06:01:03.737Z,43.40
2023-08-18T06:02:03.717Z,47.00
2023-08-18T06:03:03.767Z,47.70
2023-08-18T06:04:03.768Z,47.00
2023-08-18T06:05:03.653Z,45.30
2023-08-18T06:06:06.783Z,49.20
2023-08-18T06:07:03.662Z,43.70
2023-08-18T06:08:03.627Z,42.10
2023-08-18T06:09:03.649Z,39.30
2023-08-18T06:10:03.614Z,41.10
2023-08-18T06:11:03.612Z,43.40
2023-08-18T06:12:03.577Z,41.60
2023-08-18T06:13:03.652Z,42.10
2023-08-18T06:14:03.560Z,36.60
2023-08-18T06:15:03.542Z,40.90
2023-08-18T06:16:03.539Z,46.40
2023-08-18T06:17:03.489Z,36.20
2023-08-18T06:18:03.534Z,39.60
2023-08-18T06:19:03.495Z,41.50
2023-08-18T06:20:03.464Z,34.30
2023-08-18T06:21:03.506Z,38.00
2023-08-18T06:22:03.468Z,32.30
2023-08-18T06:23:03.453Z,35.00
2023-08-18T06:24:03.414Z,34.20
2023-08-18T06:25:03.424Z,39.60
2023-08-18T06:26:03.399Z,39.30
2023-08-18T06:27:03.369Z,40.90
2023-08-18T06:28:03.360Z,34.90
2023-08-18T06:29:03.358Z,35.60
2023-08-18T06:30:03.392Z,39.70
2023-08-18T06:31:03.339Z,39.60
2023-08-18T06:32:04.065Z,45.10
2023-08-18T06:33:03.316Z,43.20
2023-08-18T06:34:03.297Z,41.00
2023-08-18T06:35:03.283Z,44.10
2023-08-18T06:36:03.344Z,39.80
2023-08-18T06:37:03.238Z,44.70
2023-08-18T06:38:03.242Z,42.70
2023-08-18T06:39:03.231Z,42.00
2023-08-18T06:40:03.296Z,44.10
2023-08-18T06:41:03.180Z,39.70
2023-08-18T06:42:03.247Z,47.20
2023-08-18T06:43:03.177Z,36.30
2023-08-18T06:44:03.148Z,44.50
2023-08-18T06:45:03.128Z,41.20
2023-08-18T06:46:03.192Z,44.00
2023-08-18T06:47:03.124Z,41.10
2023-08-18T06:48:03.148Z,36.10
2023-08-18T06:49:03.103Z,35.90
2023-08-18T06:50:03.086Z,37.80
2023-08-18T06:51:03.077Z,35.40
2023-08-18T06:52:03.050Z,36.90
2023-08-18T06:53:03.047Z,39.20
2023-08-18T06:54:03.025Z,30.70
2023-08-18T06:55:03.005Z,34.20
2023-08-18T06:56:03.655Z,35.20
2023-08-18T06:57:02.982Z,36.90
2023-08-18T06:58:02.960Z,35.50
2023-08-18T06:59:02.982Z,37.00
2023-08-18T07:00:02.949Z,34.60
2023-08-18T07:01:02.983Z,31.50
2023-08-18T07:02:02.905Z,24.80
2023-08-18T07:03:02.973Z,24.30
2023-08-18T07:04:02.899Z,23.30
2023-08-18T07:05:02.885Z,22.70
2023-08-18T07:06:02.881Z,25.10
2023-08-18T07:07:02.834Z,19.00
2023-08-18T07:08:02.814Z,23.30
2023-08-18T07:09:02.812Z,24.20
2023-08-18T07:10:02.824Z,24.20
2023-08-18T07:11:02.801Z,23.30
2023-08-18T07:12:02.815Z,19.50
2023-08-18T07:13:02.825Z,24.70
2023-08-18T07:14:02.775Z,20.80
2023-08-18T07:15:02.734Z,21.00
2023-08-18T07:16:02.777Z,20.10
2023-08-18T07:17:02.709Z,21.50
2023-08-18T07:18:02.732Z,17.80
2023-08-18T07:19:02.689Z,20.80
2023-08-18T07:20:02.668Z,21.30
2023-08-18T07:21:02.681Z,20.20
2023-08-18T07:22:02.701Z,18.70
2023-08-18T07:23:02.658Z,19.80
2023-08-18T07:24:02.634Z,18.50
2023-08-18T07:25:02.626Z,15.90
2023-08-18T07:26:02.585Z,15.90
2023-08-18T07:27:02.606Z,17.20
2023-08-18T07:28:02.589Z,17.90
2023-08-18T07:29:02.571Z,15.00
2023-08-18T07:30:02.525Z,13.40
2023-08-18T07:31:02.550Z,16.00
2023-08-18T07:32:02.525Z,15.40
2023-08-18T07:33:02.517Z,15.70
2023-08-18T07:34:02.516Z,15.70
2023-08-18T07:35:02.482Z,14.90
2023-08-18T07:36:02.446Z,15.00
2023-08-18T07:37:02.448Z,15.80
2023-08-18T07:38:02.439Z,14.80
2023-08-18T07:39:02.408Z,14.50
2023-08-18T07:40:02.436Z,15.90
2023-08-18T07:41:02.398Z,14.10
2023-08-18T07:42:02.375Z,16.00
2023-08-18T07:43:02.348Z,15.90
2023-08-18T07:44:02.385Z,13.30
2023-08-18T07:45:02.321Z,18.30
2023-08-18T07:46:02.391Z,15.00
2023-08-18T07:47:02.328Z,18.10
2023-08-18T07:48:02.430Z,15.50
2023-08-18T07:49:02.339Z,15.00
2023-08-18T07:50:02.278Z,14.40
2023-08-18T07:51:02.248Z,17.00
2023-08-18T07:52:02.232Z,12.30
2023-08-18T07:53:02.254Z,14.40
2023-08-18T07:54:02.246Z,12.70
2023-08-18T07:55:02.194Z,17.60
2023-08-18T07:56:02.187Z,15.40
2023-08-18T07:57:02.907Z,17.90
2023-08-18T07:58:02.170Z,15.00
2023-08-18T07:59:02.146Z,15.10
2023-08-18T08:00:02.144Z,16.30
2023-08-18T08:01:02.184Z,14.60
2023-08-18T08:02:04.398Z,13.50
2023-08-18T08:03:02.169Z,15.50
2023-08-18T08:04:02.085Z,14.20
2023-08-18T08:05:02.068Z,17.10
2023-08-18T08:06:02.053Z,15.30
2023-08-18T08:07:02.072Z,15.20
2023-08-18T08:08:02.027Z,16.20
2023-08-18T08:09:02.065Z,12.30
2023-08-18T08:10:02.039Z,14.20
2023-08-18T08:11:02.020Z,14.70
2023-08-18T08:12:01.977Z,14.60
2023-08-18T08:13:02.002Z,11.50
2023-08-18T08:14:01.949Z,12.50
2023-08-18T08:15:01.957Z,15.10
2023-08-18T08:16:01.959Z,11.40
2023-08-18T08:17:01.945Z,13.00
2023-08-18T08:18:02.000Z,14.60
2023-08-18T08:19:01.883Z,13.10
2023-08-18T08:20:01.879Z,12.80
2023-08-18T08:21:01.874Z,13.90
2023-08-18T08:22:01.888Z,12.40
2023-08-18T08:23:01.866Z,16.00
2023-08-18T08:24:01.845Z,12.30
2023-08-18T08:25:01.889Z,12.80
2023-08-18T08:26:01.820Z,13.60
2023-08-18T08:27:01.783Z,13.20
2023-08-18T08:28:01.765Z,13.40
2023-08-18T08:29:01.764Z,12.30
2023-08-18T08:30:03.071Z,13.70
2023-08-18T08:31:05.977Z,16.20
2023-08-18T08:32:01.755Z,12.00
2023-08-18T08:33:01.827Z,11.30
2023-08-18T08:34:01.739Z,12.80
2023-08-18T08:35:01.680Z,14.60
2023-08-18T08:36:01.820Z,16.10
2023-08-18T08:37:01.695Z,12.20
2023-08-18T08:38:01.665Z,16.10
2023-08-18T08:39:01.632Z,15.90
2023-08-18T08:40:01.672Z,16.80
2023-08-18T08:41:01.643Z,13.60
2023-08-18T08:42:01.645Z,18.10
2023-08-18T08:43:04.767Z,13.60
2023-08-18T08:44:07.811Z,15.10
2023-08-18T08:45:02.565Z,14.60
2023-08-18T08:46:01.622Z,17.20
2023-08-18T08:47:01.616Z,13.80
2023-08-18T08:48:01.614Z,15.10
2023-08-18T08:49:01.505Z,16.00
2023-08-18T08:50:01.499Z,14.70
2023-08-18T08:51:01.510Z,15.20
2023-08-18T08:52:01.515Z,13.90
2023-08-18T08:53:01.490Z,12.70
2023-08-18T08:54:03.752Z,12.20
2023-08-18T08:55:06.957Z,14.40
2023-08-18T08:56:09.295Z,14.40
2023-08-18T08:57:02.450Z,15.50
2023-08-18T08:58:01.394Z,17.00
2023-08-18T08:59:01.379Z,13.90
2023-08-18T09:00:01.371Z,14.40
2023-08-18T09:01:01.398Z,16.30
2023-08-18T09:02:01.356Z,14.60
2023-08-18T09:03:01.542Z,13.70
2023-08-18T09:04:01.344Z,15.60
2023-08-18T09:05:01.335Z,14.20
2023-08-18T09:06:01.276Z,13.50
2023-08-18T09:07:01.316Z,10.50
2023-08-18T09:08:01.292Z,15.40
2023-08-18T09:09:03.610Z,12.50
2023-08-18T09:10:01.257Z,12.90
2023-08-18T09:11:01.269Z,12.20
2023-08-18T09:12:01.216Z,14.30
2023-08-18T09:13:01.240Z,13.50
2023-08-18T09:14:01.211Z,12.20
2023-08-18T09:15:01.180Z,12.00
2023-08-18T09:16:01.182Z,14.10
2023-08-18T09:17:01.201Z,13.80
2023-08-18T09:18:01.175Z,11.20
2023-08-18T09:19:01.154Z,12.20
2023-08-18T09:20:01.262Z,16.70
2023-08-18T09:21:01.149Z,14.90
2023-08-18T09:22:01.087Z,14.70
2023-08-18T09:23:01.110Z,13.90
2023-08-18T09:24:04.902Z,12.10
2023-08-18T09:25:01.071Z,13.20
2023-08-18T09:26:01.049Z,12.30
2023-08-18T09:27:01.051Z,13.40
2023-08-18T09:28:03.581Z,13.50
2023-08-18T09:29:00.987Z,12.30
2023-08-18T09:30:00.975Z,12.80
2023-08-18T09:31:01.022Z,13.70
2023-08-18T09:32:00.949Z,14.10
2023-08-18T09:33:00.993Z,14.30
2023-08-18T09:34:00.970Z,14.20
2023-08-18T09:35:00.911Z,16.00
2023-08-18T09:36:00.929Z,13.50
2023-08-18T09:37:00.919Z,12.30
2023-08-18T09:38:00.892Z,15.20
2023-08-18T09:39:00.918Z,13.60
2023-08-18T09:40:00.873Z,12.90
2023-08-18T09:41:00.852Z,11.50
2023-08-18T09:42:00.816Z,14.50
2023-08-18T09:43:05.329Z,11.70
2023-08-18T09:44:01.841Z,12.90
2023-08-18T09:45:00.904Z,13.60
2023-08-18T09:46:00.822Z,12.60
2023-08-18T09:47:00.785Z,14.20
2023-08-18T09:48:00.798Z,13.50
2023-08-18T09:49:00.731Z,14.70
2023-08-18T09:50:00.747Z,14.80
2023-08-18T09:51:00.746Z,12.10
2023-08-18T09:52:00.691Z,14.70
2023-08-18T09:53:00.685Z,15.50
2023-08-18T09:54:00.705Z,14.00
2023-08-18T09:55:00.693Z,17.00
2023-08-18T09:56:00.643Z,13.70
2023-08-18T09:57:00.652Z,14.90
2023-08-18T09:58:00.608Z,15.10
2023-08-18T09:59:00.631Z,15.80
2023-08-18T10:00:00.589Z,15.00
2023-08-18T10:01:00.595Z,16.20
2023-08-18T10:02:00.605Z,15.30
2023-08-18T10:03:00.673Z,14.80
2023-08-18T10:04:00.567Z,13.80
2023-08-18T10:05:00.617Z,15.50
2023-08-18T10:06:00.510Z,14.10
2023-08-18T10:07:00.512Z,15.50
2023-08-18T10:08:00.531Z,14.70
2023-08-18T10:09:00.487Z,13.60
2023-08-18T10:10:00.490Z,17.00
2023-08-18T10:11:00.590Z,16.40
2023-08-18T10:12:00.436Z,12.80
2023-08-18T10:13:00.442Z,12.60
2023-08-18T10:14:00.478Z,13.00
2023-08-18T10:15:00.429Z,13.30
2023-08-18T10:16:00.433Z,13.20
2023-08-18T10:17:00.548Z,12.10
2023-08-18T10:18:00.407Z,12.70
2023-08-18T10:19:00.387Z,11.80
2023-08-18T10:20:00.333Z,12.60
2023-08-18T10:21:00.354Z,12.70
2023-08-18T10:22:00.350Z,14.80
2023-08-18T10:23:00.321Z,11.90
2023-08-18T10:24:00.271Z,12.60
2023-08-18T10:25:00.267Z,13.60
2023-08-18T10:26:00.258Z,12.10
2023-08-18T10:27:00.246Z,12.60
2023-08-18T10:28:00.294Z,11.50
2023-08-18T10:29:00.247Z,10.30
2023-08-18T10:30:00.370Z,9.90
2023-08-18T10:31:00.190Z,11.00
2023-08-18T10:32:00.211Z,9.90
2023-08-18T10:33:00.203Z,11.70
2023-08-18T10:34:00.162Z,10.80
2023-08-18T10:35:00.166Z,11.40
2023-08-18T10:36:00.161Z,12.60
2023-08-18T10:37:00.169Z,9.30
2023-08-18T10:38:00.160Z,10.10
2023-08-18T10:39:00.117Z,11.10
2023-08-18T10:40:00.119Z,10.60
2023-08-18T10:41:00.049Z,10.30
2023-08-18T10:42:00.081Z,10.60
2023-08-18T10:43:00.103Z,10.30
2023-08-18T10:44:00.058Z,10.50
2023-08-18T10:45:00.052Z,10.10
2023-08-18T10:46:00.089Z,10.30
2023-08-18T10:47:00.009Z,10.70
2023-08-18T10:48:00.026Z,9.60
2023-08-18T10:48:59.973Z,9.10
2023-08-18T10:49:59.953Z,11.70
2023-08-18T10:50:59.943Z,11.60
2023-08-18T10:51:59.927Z,9.00
2023-08-18T10:52:59.962Z,10.80
2023-08-18T10:53:59.916Z,8.60
2023-08-18T10:54:59.912Z,10.50
2023-08-18T10:55:59.904Z,8.10
2023-08-18T10:56:59.853Z,9.80
2023-08-18T10:57:59.889Z,8.70
2023-08-18T10:58:59.869Z,9.00
2023-08-18T10:59:59.844Z,8.90
2023-08-18T11:00:59.864Z,6.50
2023-08-18T11:02:00.802Z,8.60
2023-08-18T11:02:59.859Z,8.70
2023-08-18T11:03:59.807Z,10.70
2023-08-18T11:04:59.942Z,7.30
2023-08-18T11:05:59.789Z,7.20
2023-08-18T11:06:59.760Z,7.20
2023-08-18T11:07:59.727Z,12.60
2023-08-18T11:08:59.744Z,9.30
2023-08-18T11:09:59.716Z,8.20
2023-08-18T11:10:59.812Z,9.60
2023-08-18T11:11:59.705Z,8.70
2023-08-18T11:13:00.030Z,9.00
2023-08-18T11:13:59.641Z,9.40
2023-08-18T11:14:59.650Z,10.30
2023-08-18T11:15:59.674Z,9.40
2023-08-18T11:16:59.660Z,8.30
2023-08-18T11:17:59.629Z,7.70
2023-08-18T11:18:59.575Z,6.90
2023-08-18T11:19:59.579Z,8.70
2023-08-18T11:20:59.567Z,6.80
2023-08-18T11:21:59.543Z,8.30
2023-08-18T11:22:59.527Z,7.40
2023-08-18T11:23:59.538Z,8.00
2023-08-18T11:24:59.514Z,8.40
2023-08-18T11:25:59.523Z,8.70
2023-08-18T11:26:59.478Z,8.30
2023-08-18T11:27:59.455Z,7.30
2023-08-18T11:28:59.483Z,7.70
2023-08-18T11:29:59.433Z,11.40
2023-08-18T11:30:59.442Z,9.60
2023-08-18T11:31:59.453Z,7.30
2023-08-18T11:32:59.456Z,9.10
2023-08-18T11:33:59.386Z,8.10
2023-08-18T11:34:59.377Z,7.60
2023-08-18T11:35:59.397Z,8.20
2023-08-18T11:36:59.365Z,8.10
2023-08-18T11:37:59.376Z,12.30
2023-08-18T11:38:59.338Z,9.30
2023-08-18T11:39:59.338Z,9.90
2023-08-18T11:40:59.320Z,9.00
2023-08-18T11:41:59.273Z,9.00
2023-08-18T11:42:59.272Z,8.20
2023-08-18T11:43:59.308Z,9.00
2023-08-18T11:44:59.248Z,10.00
2023-08-18T11:45:59.236Z,8.50
2023-08-18T11:46:59.251Z,8.80
2023-08-18T11:47:59.227Z,9.00
2023-08-18T11:48:59.198Z,10.60
2023-08-18T11:49:59.200Z,8.70
2023-08-18T11:50:59.182Z,9.90
2023-08-18T11:51:59.164Z,8.50
2023-08-18T11:52:59.148Z,8.90
2023-08-18T11:53:59.171Z,8.80
2023-08-18T11:54:59.170Z,11.70
2023-08-18T11:55:59.127Z,8.30
2023-08-18T11:56:59.114Z,9.10
2023-08-18T11:57:59.081Z,10.50
2023-08-18T11:58:59.071Z,8.00
2023-08-18T11:59:59.119Z,11.30
2023-08-18T12:00:59.071Z,10.50
2023-08-18T12:01:59.089Z,8.30
2023-08-18T12:02:59.146Z,8.80
2023-08-18T12:03:59.047Z,11.20
2023-08-18T12:04:59.018Z,9.80
2023-08-18T12:05:59.301Z,6.80
2023-08-18T12:06:59.012Z,7.40
2023-08-18T12:07:58.981Z,8.40
2023-08-18T12:08:58.962Z,9.40
2023-08-18T12:09:58.943Z,7.00
2023-08-18T12:10:59.057Z,8.40
2023-08-18T12:11:58.940Z,10.20
2023-08-18T12:12:58.962Z,8.80
2023-08-18T12:13:58.919Z,10.20
2023-08-18T12:14:58.891Z,8.10
2023-08-18T12:15:58.972Z,8.60
2023-08-18T12:16:58.891Z,9.00
2023-08-18T12:17:58.944Z,9.70
2023-08-18T12:18:58.856Z,8.20
2023-08-18T12:19:58.813Z,8.50
2023-08-18T12:20:58.823Z,7.50
2023-08-18T12:21:58.815Z,10.80
2023-08-18T12:22:58.821Z,10.30
2023-08-18T12:23:58.793Z,8.70
2023-08-18T12:24:58.848Z,8.30
2023-08-18T12:25:58.759Z,9.20
2023-08-18T12:26:58.716Z,13.60
2023-08-18T12:27:58.697Z,7.60
2023-08-18T12:28:58.721Z,10.50
2023-08-18T12:29:58.679Z,9.30
2023-08-18T12:30:58.720Z,8.50
2023-08-18T12:31:58.686Z,8.90
2023-08-18T12:32:58.674Z,8.10
2023-08-18T12:33:58.634Z,6.10
2023-08-18T12:34:58.631Z,9.80
2023-08-18T12:35:58.636Z,8.50
2023-08-18T12:36:58.592Z,8.00
2023-08-18T12:37:58.635Z,7.30
2023-08-18T12:38:58.608Z,9.70
2023-08-18T12:39:58.587Z,7.30
2023-08-18T12:40:58.604Z,6.70
2023-08-18T12:41:58.552Z,7.10
2023-08-18T12:42:58.546Z,10.70
2023-08-18T12:43:58.536Z,7.70
2023-08-18T12:44:58.527Z,9.00
2023-08-18T12:45:58.492Z,8.10
2023-08-18T12:46:58.590Z,9.30
2023-08-18T12:47:58.538Z,9.20
2023-08-18T12:48:58.487Z,9.60
2023-08-18T12:49:58.442Z,10.40
2023-08-18T12:50:58.427Z,10.70
2023-08-18T12:51:58.404Z,7.40
2023-08-18T12:52:58.436Z,8.10
2023-08-18T12:53:58.420Z,8.50
2023-08-18T12:54:58.387Z,7.30
2023-08-18T12:55:58.466Z,8.20
2023-08-18T12:56:58.342Z,7.70
2023-08-18T12:57:58.341Z,7.60